createdAt,value
2018-03-15T00:01:59.801Z,84.60
2018-03-15T00:04:32.774Z,84.80
2018-03-15T00:07:04.623Z,84.80
2018-03-15T00:09:36.043Z,84.90
2018-03-15T00:12:08.221Z,85.00
2018-03-15T00:14:41.214Z,85.10
2018-03-15T00:17:13.668Z,85.10
2018-03-15T00:19:46.074Z,85.10
2018-03-15T00:22:18.404Z,85.40
2018-03-15T00:24:50.424Z,85.40
2018-03-15T00:27:22.482Z,85.60
2018-03-15T00:29:55.547Z,85.80
2018-03-15T00:32:26.086Z,85.80
2018-03-15T00:34:59.389Z,86.00
2018-03-15T00:37:30.557Z,85.90
2018-03-15T00:40:01.150Z,86.10
2018-03-15T00:42:32.155Z,86.20
2018-03-15T00:45:05.031Z,86.20
2018-03-15T00:47:35.964Z,86.20
2018-03-15T00:50:06.563Z,86.40
2018-03-15T00:52:37.081Z,87.30
2018-03-15T00:55:08.047Z,86.70
2018-03-15T00:57:42.416Z,86.80
2018-03-15T01:00:19.628Z,86.80
2018-03-15T01:02:52.209Z,87.00
2018-03-15T01:05:23.714Z,87.10
2018-03-15T01:07:55.055Z,87.20
2018-03-15T01:10:26.190Z,87.20
2018-03-15T01:12:57.614Z,87.30
2018-03-15T01:15:29.782Z,87.50
2018-03-15T01:18:10.054Z,87.50
2018-03-15T01:20:44.739Z,87.60
2018-03-15T01:23:15.524Z,87.60
2018-03-15T01:25:46.173Z,87.60
2018-03-15T01:28:16.857Z,87.70
2018-03-15T01:30:48.186Z,87.70
2018-03-15T01:33:22.855Z,87.60
2018-03-15T01:35:54.110Z,87.70
2018-03-15T01:38:24.702Z,87.60
2018-03-15T01:40:56.492Z,87.60
2018-03-15T01:43:27.327Z,87.60
2018-03-15T01:45:58.973Z,87.50
2018-03-15T01:48:29.746Z,87.60
2018-03-15T01:50:59.747Z,87.60
2018-03-15T01:53:29.560Z,87.60
2018-03-15T01:55:59.791Z,87.60
2018-03-15T01:58:32.729Z,87.40
2018-03-15T02:01:02.789Z,87.50
2018-03-15T02:03:33.454Z,87.40
2018-03-15T02:06:03.035Z,87.20
2018-03-15T02:08:32.802Z,87.20
2018-03-15T02:11:03.412Z,87.10
2018-03-15T02:13:33.194Z,87.10
2018-03-15T02:16:03.243Z,87.00
2018-03-15T02:18:33.762Z,87.00
2018-03-15T02:21:03.642Z,87.00
2018-03-15T02:23:33.232Z,87.00
2018-03-15T02:26:03.523Z,86.60
2018-03-15T02:28:33.058Z,86.60
2018-03-15T02:31:03.762Z,86.40
2018-03-15T02:33:33.459Z,86.40
2018-03-15T02:36:03.113Z,86.10
2018-03-15T02:38:32.577Z,85.90
2018-03-15T02:41:02.392Z,85.80
2018-03-15T02:43:31.918Z,85.60
2018-03-15T02:46:01.673Z,85.50
2018-03-15T02:48:31.328Z,85.30
2018-03-15T02:51:00.932Z,85.50
2018-03-15T02:53:30.286Z,85.30
2018-03-15T02:55:59.770Z,85.10
2018-03-15T02:58:29.433Z,84.90
2018-03-15T03:00:58.987Z,84.60
2018-03-15T03:03:28.419Z,84.60
2018-03-15T03:05:57.928Z,84.60
2018-03-15T03:08:27.379Z,84.50
2018-03-15T03:10:57.048Z,84.10
2018-03-15T03:13:26.636Z,84.20
2018-03-15T03:15:56.261Z,84.30
2018-03-15T03:18:26.269Z,84.20
2018-03-15T03:20:55.784Z,84.00
2018-03-15T03:23:25.311Z,83.80
2018-03-15T03:25:55.749Z,83.70
2018-03-15T03:28:25.506Z,83.50
2018-03-15T03:30:55.509Z,83.30
2018-03-15T03:33:24.959Z,83.00
2018-03-15T03:35:55.218Z,83.10
2018-03-15T03:38:25.497Z,83.60
2018-03-15T03:40:55.571Z,82.80
2018-03-15T03:43:26.038Z,83.60
2018-03-15T03:45:55.793Z,83.00
2018-03-15T03:48:25.284Z,82.90
2018-03-15T03:50:55.273Z,82.70
2018-03-15T03:53:24.720Z,82.70
2018-03-15T03:55:55.114Z,83.00
2018-03-15T03:58:24.602Z,82.80
2018-03-15T04:00:54.975Z,82.80
2018-03-15T04:03:26.172Z,82.60
2018-03-15T04:05:55.831Z,82.50
2018-03-15T04:08:26.097Z,82.60
2018-03-15T04:10:56.679Z,82.60
2018-03-15T04:13:26.944Z,82.80
2018-03-15T04:15:56.377Z,82.80
2018-03-15T04:18:25.855Z,82.80
2018-03-15T04:20:55.695Z,82.90
2018-03-15T04:23:25.164Z,82.80
2018-03-15T04:25:55.730Z,82.70
2018-03-15T04:28:26.197Z,82.90
2018-03-15T04:30:55.891Z,82.60
2018-03-15T04:33:25.272Z,82.70
2018-03-15T04:35:55.539Z,82.80
2018-03-15T04:38:24.982Z,82.80
2018-03-15T04:40:56.000Z,83.00
2018-03-15T04:43:25.658Z,83.10
2018-03-15T04:45:55.686Z,83.10
2018-03-15T04:48:25.212Z,83.10
2018-03-15T04:50:55.669Z,83.10
2018-03-15T04:53:25.103Z,82.90
2018-03-15T04:55:55.351Z,82.90
2018-03-15T04:58:25.047Z,83.00
2018-03-15T05:00:56.452Z,83.00
2018-03-15T05:03:25.925Z,83.10
2018-03-15T05:05:56.713Z,82.90
2018-03-15T05:08:26.140Z,83.00
2018-03-15T05:10:55.857Z,82.70
2018-03-15T05:13:25.356Z,82.80
2018-03-15T05:15:55.427Z,82.70
2018-03-15T05:18:25.261Z,82.60
2018-03-15T05:20:55.392Z,82.50
2018-03-15T05:23:25.327Z,82.40
2018-03-15T05:25:55.774Z,82.50
2018-03-15T05:28:26.133Z,82.30
2018-03-15T05:30:56.131Z,82.20
2018-03-15T05:33:26.293Z,82.40
2018-03-15T05:35:55.904Z,82.40
2018-03-15T05:38:26.505Z,82.40
2018-03-15T05:40:56.551Z,82.30
2018-03-15T05:43:26.823Z,82.40
2018-03-15T05:45:57.621Z,82.50
2018-03-15T05:48:27.894Z,82.50
2018-03-15T05:50:58.654Z,82.30
2018-03-15T05:53:29.083Z,82.50
2018-03-15T05:55:59.643Z,82.50
2018-03-15T05:58:30.347Z,82.30
2018-03-15T06:01:00.760Z,82.30
2018-03-15T06:03:31.660Z,82.40
2018-03-15T06:06:02.979Z,82.30
2018-03-15T06:08:33.602Z,82.30
2018-03-15T06:11:04.179Z,82.50
2018-03-15T06:13:34.738Z,82.50
2018-03-15T06:16:06.403Z,82.30
2018-03-15T06:18:36.728Z,82.20
2018-03-15T06:21:07.248Z,82.10
2018-03-15T06:23:38.594Z,82.20
2018-03-15T06:26:09.545Z,82.00
2018-03-15T06:28:40.621Z,82.00
2018-03-15T06:31:10.949Z,81.90
2018-03-15T06:33:41.594Z,81.80
2018-03-15T06:36:12.643Z,82.00
2018-03-15T06:41:28.309Z,81.90
2018-03-15T06:44:00.192Z,81.80
2018-03-15T06:49:17.314Z,81.60
2018-03-15T06:51:48.546Z,81.60
2018-03-15T06:54:19.337Z,81.30
2018-03-15T06:56:51.412Z,81.60
2018-03-15T06:59:21.840Z,81.60
2018-03-15T07:01:55.072Z,81.30
2018-03-15T07:04:32.515Z,81.70
2018-03-15T07:07:04.979Z,81.50
2018-03-15T07:09:35.973Z,81.50
2018-03-15T07:12:07.104Z,81.40
2018-03-15T07:14:38.317Z,81.50
2018-03-15T07:17:08.869Z,82.10
2018-03-15T07:19:39.324Z,80.90
2018-03-15T07:22:11.524Z,80.40
2018-03-15T07:24:43.386Z,80.20
2018-03-15T07:27:14.667Z,79.30
2018-03-15T07:29:45.596Z,79.20
2018-03-15T07:32:15.963Z,78.60
2018-03-15T07:34:47.427Z,78.40
2018-03-15T07:37:17.523Z,78.40
2018-03-15T07:39:48.305Z,78.10
2018-03-15T07:42:20.620Z,76.50
2018-03-15T07:44:52.922Z,76.50
2018-03-15T07:47:23.359Z,77.00
2018-03-15T07:49:56.067Z,76.40
2018-03-15T07:52:28.333Z,76.00
2018-03-15T07:55:02.978Z,75.80
2018-03-15T07:57:33.553Z,75.90
2018-03-15T08:00:05.228Z,75.50
2018-03-15T08:02:35.964Z,75.50
2018-03-15T08:05:08.376Z,73.90
2018-03-15T08:07:39.378Z,73.40
2018-03-15T08:10:12.409Z,74.10
2018-03-15T08:12:42.857Z,74.00
2018-03-15T08:15:13.699Z,73.80
2018-03-15T08:17:45.601Z,73.60
2018-03-15T08:20:16.081Z,73.00
2018-03-15T08:22:46.682Z,71.80
2018-03-15T08:25:17.356Z,72.00
2018-03-15T08:27:48.260Z,72.20
2018-03-15T08:30:26.022Z,72.30
2018-03-15T08:32:59.088Z,72.10
2018-03-15T08:35:30.989Z,71.50
2018-03-15T08:38:02.870Z,71.70
2018-03-15T08:40:43.941Z,71.30
2018-03-15T08:43:15.361Z,71.40
2018-03-15T08:45:47.611Z,70.90
2018-03-15T08:48:19.599Z,70.50
2018-03-15T08:50:54.034Z,70.00
2018-03-15T08:53:25.340Z,70.00
2018-03-15T08:55:57.219Z,69.60
2018-03-15T08:58:31.557Z,70.40
2018-03-15T09:01:04.203Z,68.80
2018-03-15T09:03:36.892Z,68.70
2018-03-15T09:06:07.470Z,68.20
2018-03-15T09:08:39.134Z,67.40
2018-03-15T09:11:09.151Z,67.00
2018-03-15T09:13:39.402Z,66.90
2018-03-15T09:16:15.168Z,66.30
2018-03-15T09:18:49.591Z,65.40
2018-03-15T09:21:19.711Z,62.50
2018-03-15T09:23:49.744Z,62.30
2018-03-15T09:26:20.610Z,61.50
2018-03-15T09:28:51.555Z,61.50
2018-03-15T09:31:21.734Z,61.20
2018-03-15T09:33:53.116Z,60.30
2018-03-15T09:36:23.322Z,58.70
2018-03-15T09:38:54.363Z,59.10
2018-03-15T09:41:24.412Z,58.30
2018-03-15T09:43:55.346Z,58.30
2018-03-15T09:46:25.558Z,57.30
2018-03-15T09:48:56.063Z,56.80
2018-03-15T09:51:26.201Z,55.70
2018-03-15T09:53:57.026Z,53.20
2018-03-15T09:56:27.028Z,53.30
2018-03-15T09:58:58.250Z,51.90
2018-03-15T10:01:28.981Z,51.70
2018-03-15T10:03:59.720Z,51.60
2018-03-15T10:06:31.772Z,51.20
2018-03-15T10:09:02.929Z,52.20
2018-03-15T10:11:35.281Z,52.60
2018-03-15T10:14:12.237Z,52.60
2018-03-15T10:19:44.360Z,49.70
2018-03-15T10:22:14.402Z,47.30
2018-03-15T10:24:45.142Z,46.50
2018-03-15T10:27:19.252Z,46.00
2018-03-15T10:29:49.681Z,45.90
2018-03-15T10:32:20.033Z,45.80
2018-03-15T10:34:54.473Z,44.50
2018-03-15T10:37:24.664Z,44.80
2018-03-15T10:39:57.136Z,44.90
2018-03-15T10:42:29.190Z,44.40
2018-03-15T10:45:05.065Z,43.10
2018-03-15T10:47:35.559Z,43.00
2018-03-15T10:50:06.337Z,43.00
2018-03-15T10:52:37.535Z,43.00
2018-03-15T10:55:08.771Z,44.00
2018-03-15T10:57:39.865Z,42.40
2018-03-15T11:00:10.071Z,42.40
2018-03-15T11:02:45.046Z,42.80
2018-03-15T11:05:19.849Z,42.80
2018-03-15T11:07:54.121Z,42.50
2018-03-15T11:10:29.382Z,42.80
2018-03-15T11:12:59.617Z,44.00
2018-03-15T11:15:29.906Z,44.70
2018-03-15T11:18:01.074Z,46.10
2018-03-15T11:20:31.341Z,46.10
2018-03-15T11:23:01.740Z,45.70
2018-03-15T11:25:32.089Z,46.50
2018-03-15T11:28:03.850Z,46.30
2018-03-15T11:30:33.942Z,46.30
2018-03-15T11:33:04.240Z,46.10
2018-03-15T11:35:38.945Z,46.60
2018-03-15T11:38:09.270Z,46.50
2018-03-15T11:40:39.856Z,46.40
2018-03-15T11:43:13.163Z,47.10
2018-03-15T11:45:46.986Z,47.30
2018-03-15T11:48:17.139Z,47.70
2018-03-15T11:50:50.357Z,47.60
2018-03-15T11:53:20.996Z,47.20
2018-03-15T11:55:52.150Z,46.70
2018-03-15T11:58:22.527Z,47.40
2018-03-15T12:00:53.714Z,47.00
2018-03-15T12:03:25.815Z,46.20
2018-03-15T12:05:56.117Z,46.10
2018-03-15T12:08:26.559Z,45.90
2018-03-15T12:10:57.654Z,46.30
2018-03-15T12:13:31.273Z,46.70
2018-03-15T12:16:01.998Z,47.50
2018-03-15T12:18:32.848Z,48.10
2018-03-15T12:21:03.229Z,48.10
2018-03-15T12:23:35.878Z,48.50
2018-03-15T12:26:06.690Z,48.70
2018-03-15T12:28:37.809Z,49.20
2018-03-15T12:31:08.387Z,49.00
2018-03-15T12:33:45.634Z,48.70
2018-03-15T12:36:17.208Z,49.50
2018-03-15T12:38:47.662Z,49.50
2018-03-15T12:41:17.619Z,50.00
2018-03-15T12:43:48.503Z,48.40
2018-03-15T12:46:18.803Z,48.40
2018-03-15T12:48:50.034Z,48.80
2018-03-15T12:51:20.130Z,48.80
2018-03-15T12:53:50.134Z,49.10
2018-03-15T12:56:20.195Z,48.50
2018-03-15T12:58:59.945Z,49.80
2018-03-15T13:01:38.155Z,49.80
2018-03-15T13:04:08.687Z,49.60
2018-03-15T13:06:39.056Z,49.60
2018-03-15T13:09:09.887Z,50.80
2018-03-15T13:11:43.892Z,50.90
2018-03-15T13:14:13.811Z,50.80
2018-03-15T13:16:43.536Z,50.90
2018-03-15T13:19:13.319Z,51.10
2018-03-15T13:21:46.741Z,51.70
2018-03-15T13:24:16.882Z,50.20
2018-03-15T13:26:47.316Z,50.20
2018-03-15T13:29:16.997Z,49.40
2018-03-15T13:31:46.852Z,48.60
2018-03-15T13:34:18.680Z,49.20
2018-03-15T13:37:17.833Z,49.40
2018-03-15T13:39:55.415Z,49.60
2018-03-15T13:42:25.803Z,50.00
2018-03-15T13:48:16.361Z,49.70
2018-03-15T13:50:50.286Z,50.00
2018-03-15T13:53:20.673Z,50.00
2018-03-15T13:55:54.546Z,49.30
2018-03-15T13:58:27.943Z,48.80
2018-03-15T14:00:58.035Z,48.90
2018-03-15T14:03:27.418Z,48.20
2018-03-15T14:05:57.583Z,47.80
2018-03-15T14:08:28.336Z,47.80
2018-03-15T14:10:58.614Z,48.60
2018-03-15T14:13:29.427Z,49.30
2018-03-15T14:15:59.463Z,49.30
2018-03-15T14:18:35.123Z,49.40
2018-03-15T14:21:04.913Z,47.50
2018-03-15T14:23:36.808Z,47.80
2018-03-15T14:26:08.014Z,48.40
2018-03-15T14:28:40.413Z,48.20
2018-03-15T14:31:17.883Z,48.20
2018-03-15T14:33:49.339Z,48.10
2018-03-15T14:36:24.048Z,48.20
2018-03-15T14:38:58.797Z,48.30
2018-03-15T14:41:29.236Z,48.90
2018-03-15T14:43:58.962Z,48.90
2018-03-15T14:46:28.516Z,48.70
2018-03-15T14:48:58.039Z,48.60
2018-03-15T14:51:27.484Z,48.80
2018-03-15T14:53:57.917Z,48.70
2018-03-15T14:56:30.773Z,48.50
2018-03-15T14:59:00.878Z,48.30
2018-03-15T15:01:31.112Z,47.00
2018-03-15T15:04:01.369Z,46.10
2018-03-15T15:06:30.709Z,45.60
2018-03-15T15:09:00.613Z,45.60
2018-03-15T15:11:29.864Z,45.50
2018-03-15T15:13:59.324Z,46.00
2018-03-15T15:16:30.014Z,46.10
2018-03-15T15:19:02.624Z,46.10
2018-03-15T15:21:41.988Z,46.50
2018-03-15T15:24:11.713Z,46.50
2018-03-15T15:26:42.112Z,46.90
2018-03-15T15:29:12.857Z,47.30
2018-03-15T15:31:45.594Z,47.10
2018-03-15T15:34:15.561Z,47.50
2018-03-15T15:36:44.987Z,48.20
2018-03-15T15:39:15.615Z,48.50
2018-03-15T15:41:55.772Z,49.50
2018-03-15T15:44:28.864Z,49.10
2018-03-15T15:46:58.432Z,49.70
2018-03-15T15:49:28.480Z,50.00
2018-03-15T15:51:58.527Z,50.00
2018-03-15T15:54:30.000Z,50.30
2018-03-15T15:56:59.934Z,50.30
2018-03-15T15:59:29.298Z,49.90
2018-03-15T16:01:58.596Z,49.80
2018-03-15T16:04:28.060Z,49.90
2018-03-15T16:06:57.647Z,50.40
2018-03-15T16:09:39.575Z,50.60
2018-03-15T16:12:18.680Z,50.90
2018-03-15T16:14:48.655Z,50.90
2018-03-15T16:17:19.184Z,50.80
2018-03-15T16:19:49.486Z,51.20
2018-03-15T16:22:19.404Z,51.40
2018-03-15T16:24:49.204Z,51.60
2018-03-15T16:27:19.022Z,51.90
2018-03-15T16:29:52.703Z,51.90
2018-03-15T16:32:22.982Z,52.10
2018-03-15T16:34:54.275Z,52.40
2018-03-15T16:37:24.002Z,52.80
2018-03-15T16:39:53.678Z,53.30
2018-03-15T16:42:29.986Z,53.70
2018-03-15T16:45:06.941Z,53.60
2018-03-15T16:47:36.751Z,54.00
2018-03-15T16:50:06.672Z,54.60
2018-03-15T16:52:36.190Z,54.30
2018-03-15T16:55:05.896Z,54.60
2018-03-15T16:57:42.430Z,55.20
2018-03-15T17:00:26.304Z,56.00
2018-03-15T17:02:57.752Z,55.80
2018-03-15T17:05:27.232Z,55.50
2018-03-15T17:07:57.509Z,55.80
2018-03-15T17:10:28.323Z,55.20
2018-03-15T17:12:57.990Z,54.80
2018-03-15T17:15:27.616Z,54.90
2018-03-15T17:17:58.010Z,55.00
2018-03-15T17:20:28.344Z,53.90
2018-03-15T17:22:57.576Z,53.90
2018-03-15T17:25:27.193Z,53.70
2018-03-15T17:28:00.449Z,53.90
2018-03-15T17:30:30.335Z,54.10
2018-03-15T17:33:04.361Z,53.80
2018-03-15T17:35:34.333Z,53.60
2018-03-15T17:38:04.565Z,53.80
2018-03-15T17:40:34.364Z,53.70
2018-03-15T17:43:04.216Z,54.20
2018-03-15T17:45:33.840Z,54.00
2018-03-15T17:48:05.466Z,53.90
2018-03-15T17:50:42.709Z,54.00
2018-03-15T17:56:32.909Z,56.20
2018-03-15T17:59:10.414Z,60.60
2018-03-15T18:01:54.732Z,68.10
2018-03-15T18:04:24.711Z,68.10
2018-03-15T18:06:55.708Z,73.40
2018-03-15T18:09:26.357Z,75.80
2018-03-15T18:11:59.020Z,77.70
2018-03-15T18:14:28.370Z,78.50
2018-03-15T18:16:58.213Z,78.70
2018-03-15T18:19:29.462Z,80.10
2018-03-15T18:22:05.571Z,83.20
2018-03-15T18:24:35.256Z,83.10
2018-03-15T18:27:05.277Z,83.60
2018-03-15T18:29:34.972Z,85.00
2018-03-15T18:32:04.579Z,85.90
2018-03-15T18:34:33.926Z,87.70
2018-03-15T18:37:04.200Z,89.10
2018-03-15T18:39:35.034Z,90.50
2018-03-15T18:42:04.645Z,90.50
2018-03-15T18:44:34.696Z,91.10
2018-03-15T18:47:04.329Z,91.00
2018-03-15T18:49:33.887Z,91.80
2018-03-15T18:52:03.965Z,92.90
2018-03-15T18:54:35.041Z,93.50
2018-03-15T18:57:06.369Z,93.70
2018-03-15T18:59:36.976Z,93.70
2018-03-15T19:02:06.263Z,94.20
2018-03-15T19:04:36.111Z,93.90
2018-03-15T19:07:05.482Z,94.00
2018-03-15T19:09:35.905Z,94.70
2018-03-15T19:12:07.032Z,95.30
2018-03-15T19:14:38.126Z,95.00
2018-03-15T19:17:10.006Z,94.60
2018-03-15T19:19:43.609Z,95.00
2018-03-15T19:22:26.650Z,96.20
2018-03-15T19:25:03.718Z,96.50
2018-03-15T19:27:39.726Z,96.30
2018-03-15T19:30:18.016Z,96.60
2018-03-15T19:32:59.968Z,96.20
2018-03-15T19:35:43.149Z,96.60
2018-03-15T19:38:25.494Z,97.50
2018-03-15T19:41:07.776Z,97.30
2018-03-15T19:43:49.530Z,97.30
2018-03-15T19:46:40.319Z,98.00
2018-03-15T19:49:22.519Z,98.00
2018-03-15T19:52:11.745Z,98.20
2018-03-15T19:54:51.096Z,98.20
2018-03-15T19:57:29.158Z,98.00
2018-03-15T20:00:14.032Z,98.00
2018-03-15T20:02:59.406Z,97.80
2018-03-15T20:05:55.913Z,97.50
2018-03-15T20:08:40.403Z,97.50
2018-03-15T20:11:27.033Z,98.30
2018-03-15T20:14:13.411Z,97.20
2018-03-15T20:16:59.739Z,98.10
2018-03-15T20:19:57.846Z,98.10
2018-03-15T20:22:43.624Z,97.50
2018-03-15T20:25:27.440Z,97.80
2018-03-15T20:28:12.922Z,97.80
2018-03-15T20:31:00.241Z,97.70
2018-03-15T20:33:47.334Z,97.50
2018-03-15T20:36:26.358Z,97.30
2018-03-15T20:39:10.014Z,97.30
2018-03-15T20:41:46.835Z,97.50
2018-03-15T20:44:18.849Z,97.80
2018-03-15T20:46:56.370Z,97.40
2018-03-15T20:49:30.536Z,97.40
2018-03-15T20:52:01.864Z,97.40
2018-03-15T20:54:32.333Z,97.60
2018-03-15T20:57:02.628Z,97.70
2018-03-15T20:59:32.825Z,97.80
2018-03-15T21:02:02.799Z,97.20
2018-03-15T21:04:33.343Z,97.20
2018-03-15T21:07:02.789Z,96.70
2018-03-15T21:09:34.697Z,96.70
2018-03-15T21:12:05.916Z,96.70
2018-03-15T21:14:44.600Z,96.60
2018-03-15T21:17:25.193Z,96.60
2018-03-15T21:19:58.026Z,96.30
2018-03-15T21:22:28.187Z,96.30
2018-03-15T21:25:02.749Z,96.00
2018-03-15T21:27:37.048Z,95.50
2018-03-15T21:30:09.257Z,96.40
2018-03-15T21:32:39.141Z,96.20
2018-03-15T21:35:10.208Z,96.30
2018-03-15T21:37:40.327Z,96.40
2018-03-15T21:40:26.923Z,96.50
2018-03-15T21:43:06.325Z,96.20
2018-03-15T21:45:37.236Z,96.40
2018-03-15T21:48:09.263Z,96.10
2018-03-15T21:50:44.824Z,96.20
2018-03-15T21:53:18.964Z,95.90
2018-03-15T21:55:58.095Z,95.90
2018-03-15T21:58:35.958Z,95.90
2018-03-15T22:01:21.055Z,95.60
2018-03-15T22:06:54.271Z,95.60
2018-03-15T22:12:12.836Z,95.50
2018-03-15T22:14:48.304Z,94.80
2018-03-15T22:17:20.351Z,94.80
2018-03-15T22:20:01.145Z,94.70
2018-03-15T22:22:32.750Z,94.60
2018-03-15T22:27:48.244Z,94.90
2018-03-15T22:30:18.868Z,94.40
2018-03-15T22:32:49.965Z,94.70
2018-03-15T22:35:19.825Z,94.50
2018-03-15T22:37:56.803Z,94.70
2018-03-15T22:40:26.354Z,95.00
2018-03-15T22:42:56.514Z,95.20
2018-03-15T22:45:25.998Z,95.20
2018-03-15T22:47:56.938Z,95.60
2018-03-15T22:50:30.064Z,95.50
2018-03-15T22:53:02.316Z,94.90
2018-03-15T22:55:38.510Z,95.50
2018-03-15T22:58:09.540Z,95.40
2018-03-15T23:00:39.037Z,95.60
2018-03-15T23:03:09.879Z,95.40
2018-03-15T23:05:40.197Z,95.20
2018-03-15T23:08:10.139Z,95.20
2018-03-15T23:10:41.173Z,95.20
2018-03-15T23:13:10.870Z,95.30
2018-03-15T23:15:46.029Z,95.20
2018-03-15T23:18:20.229Z,95.00
2018-03-15T23:20:56.138Z,95.20
2018-03-15T23:23:27.284Z,95.50
2018-03-15T23:25:58.498Z,95.50
2018-03-15T23:28:28.661Z,95.80
2018-03-15T23:30:58.901Z,95.40
2018-03-15T23:33:28.209Z,95.70
2018-03-15T23:35:57.819Z,95.30
2018-03-15T23:38:27.029Z,95.20
2018-03-15T23:40:57.988Z,95.00
2018-03-15T23:43:29.413Z,95.00
2018-03-15T23:46:00.499Z,95.10
2018-03-15T23:48:30.761Z,95.00
2018-03-15T23:51:00.378Z,94.90
2018-03-15T23:53:35.671Z,94.70
2018-03-15T23:56:13.880Z,94.60
2018-03-15T23:58:43.759Z,94.60
